sensor_id;sensor_type;location;lat;lon;timestamp;temperature;humidity
67050;DHT22;53955;52.442;13.284;2023-06-04T00:02:16;17.60;12.80
67050;DHT22;53955;52.442;13.284;2023-06-04T00:04:43;17.40;13.50
67050;DHT22;53955;52.442;13.284;2023-06-04T00:07:09;17.40;13.70
67050;DHT22;53955;52.442;13.284;2023-06-04T00:09:37;17.50;13.40
67050;DHT22;53955;52.442;13.284;2023-06-04T00:12:04;17.40;13.90
67050;DHT22;53955;52.442;13.284;2023-06-04T00:14:31;17.40;14.10
67050;DHT22;53955;52.442;13.284;2023-06-04T00:16:58;17.30;14.10
67050;DHT22;53955;52.442;13.284;2023-06-04T00:19:24;17.30;14.20
67050;DHT22;53955;52.442;13.284;2023-06-04T00:21:51;17.20;14.20
67050;DHT22;53955;52.442;13.284;2023-06-04T00:24:18;17.20;14.70
67050;DHT22;53955;52.442;13.284;2023-06-04T00:26:46;17.20;14.80
67050;DHT22;53955;52.442;13.284;2023-06-04T00:29:13;17.20;14.50
67050;DHT22;53955;52.442;13.284;2023-06-04T00:31:39;17.00;14.80
67050;DHT22;53955;52.442;13.284;2023-06-04T00:34:06;17.10;14.80
67050;DHT22;53955;52.442;13.284;2023-06-04T00:36:33;17.00;15.30
67050;DHT22;53955;52.442;13.284;2023-06-04T00:38:59;17.10;14.60
67050;DHT22;53955;52.442;13.284;2023-06-04T00:41:26;17.10;15.30
67050;DHT22;53955;52.442;13.284;2023-06-04T00:43:54;17.00;15.60
67050;DHT22;53955;52.442;13.284;2023-06-04T00:46:23;17.00;14.80
67050;DHT22;53955;52.442;13.284;2023-06-04T00:48:51;17.00;15.30
67050;DHT22;53955;52.442;13.284;2023-06-04T00:51:18;17.00;15.50
67050;DHT22;53955;52.442;13.284;2023-06-04T00:53:44;16.90;15.70
67050;DHT22;53955;52.442;13.284;2023-06-04T00:56:12;16.80;15.90
67050;DHT22;53955;52.442;13.284;2023-06-04T00:58:39;16.80;15.30
67050;DHT22;53955;52.442;13.284;2023-06-04T01:01:10;16.70;16.20
67050;DHT22;53955;52.442;13.284;2023-06-04T01:03:42;16.70;16.50
67050;DHT22;53955;52.442;13.284;2023-06-04T01:06:14;16.70;16.40
67050;DHT22;53955;52.442;13.284;2023-06-04T01:08:46;16.60;16.00
67050;DHT22;53955;52.442;13.284;2023-06-04T01:11:14;16.60;16.50
67050;DHT22;53955;52.442;13.284;2023-06-04T01:13:41;16.60;16.70
67050;DHT22;53955;52.442;13.284;2023-06-04T01:16:11;16.60;16.40
67050;DHT22;53955;52.442;13.284;2023-06-04T01:18:39;16.60;16.30
67050;DHT22;53955;52.442;13.284;2023-06-04T01:21:08;16.60;17.10
67050;DHT22;53955;52.442;13.284;2023-06-04T01:23:46;16.50;16.90
67050;DHT22;53955;52.442;13.284;2023-06-04T01:26:13;16.50;16.80
67050;DHT22;53955;52.442;13.284;2023-06-04T01:28:47;16.40;16.80
67050;DHT22;53955;52.442;13.284;2023-06-04T01:31:15;16.40;17.40
67050;DHT22;53955;52.442;13.284;2023-06-04T01:33:42;16.40;17.70
67050;DHT22;53955;52.442;13.284;2023-06-04T01:36:08;16.40;17.40
67050;DHT22;53955;52.442;13.284;2023-06-04T01:38:37;16.40;18.00
67050;DHT22;53955;52.442;13.284;2023-06-04T01:41:04;16.40;18.40
67050;DHT22;53955;52.442;13.284;2023-06-04T01:43:30;16.40;18.40
67050;DHT22;53955;52.442;13.284;2023-06-04T01:46:00;16.40;18.20
67050;DHT22;53955;52.442;13.284;2023-06-04T01:48:28;16.30;18.60
67050;DHT22;53955;52.442;13.284;2023-06-04T01:50:55;16.30;19.20
67050;DHT22;53955;52.442;13.284;2023-06-04T01:53:21;16.30;19.40
67050;DHT22;53955;52.442;13.284;2023-06-04T01:55:48;16.30;19.10
67050;DHT22;53955;52.442;13.284;2023-06-04T01:58:15;16.30;19.10
67050;DHT22;53955;52.442;13.284;2023-06-04T02:00:48;16.30;19.40
67050;DHT22;53955;52.442;13.284;2023-06-04T02:03:15;16.30;19.80
67050;DHT22;53955;52.442;13.284;2023-06-04T02:05:43;16.20;19.40
67050;DHT22;53955;52.442;13.284;2023-06-04T02:08:12;16.10;19.80
67050;DHT22;53955;52.442;13.284;2023-06-04T02:10:45;16.10;20.00
67050;DHT22;53955;52.442;13.284;2023-06-04T02:13:11;16.00;20.20
67050;DHT22;53955;52.442;13.284;2023-06-04T02:15:38;16.00;20.10
67050;DHT22;53955;52.442;13.284;2023-06-04T02:18:13;16.00;20.50
67050;DHT22;53955;52.442;13.284;2023-06-04T02:20:42;15.90;20.60
67050;DHT22;53955;52.442;13.284;2023-06-04T02:23:09;15.90;21.00
67050;DHT22;53955;52.442;13.284;2023-06-04T02:25:35;15.90;20.80
67050;DHT22;53955;52.442;13.284;2023-06-04T02:28:02;15.90;21.40
67050;DHT22;53955;52.442;13.284;2023-06-04T02:30:29;15.90;21.30
67050;DHT22;53955;52.442;13.284;2023-06-04T02:32:55;15.90;21.40
67050;DHT22;53955;52.442;13.284;2023-06-04T02:35:22;15.80;21.70
67050;DHT22;53955;52.442;13.284;2023-06-04T02:37:51;15.80;22.80
67050;DHT22;53955;52.442;13.284;2023-06-04T02:40:17;15.70;22.30
67050;DHT22;53955;52.442;13.284;2023-06-04T02:42:44;15.70;23.10
67050;DHT22;53955;52.442;13.284;2023-06-04T02:45:11;15.60;23.50
67050;DHT22;53955;52.442;13.284;2023-06-04T02:47:38;15.40;23.20
67050;DHT22;53955;52.442;13.284;2023-06-04T02:50:05;15.40;25.00
67050;DHT22;53955;52.442;13.284;2023-06-04T02:52:32;15.50;23.10
67050;DHT22;53955;52.442;13.284;2023-06-04T02:55:05;15.50;23.80
67050;DHT22;53955;52.442;13.284;2023-06-04T02:57:32;15.50;24.40
67050;DHT22;53955;52.442;13.284;2023-06-04T02:59:58;15.40;25.70
67050;DHT22;53955;52.442;13.284;2023-06-04T03:02:25;15.50;24.30
67050;DHT22;53955;52.442;13.284;2023-06-04T03:04:52;15.50;25.10
67050;DHT22;53955;52.442;13.284;2023-06-04T03:07:20;15.40;25.70
67050;DHT22;53955;52.442;13.284;2023-06-04T03:09:48;15.20;26.70
67050;DHT22;53955;52.442;13.284;2023-06-04T03:12:16;15.20;26.90
67050;DHT22;53955;52.442;13.284;2023-06-04T03:14:43;15.20;27.20
67050;DHT22;53955;52.442;13.284;2023-06-04T03:17:09;15.20;27.60
67050;DHT22;53955;52.442;13.284;2023-06-04T03:19:37;15.10;27.70
67050;DHT22;53955;52.442;13.284;2023-06-04T03:22:05;15.10;27.80
67050;DHT22;53955;52.442;13.284;2023-06-04T03:24:33;15.30;28.80
67050;DHT22;53955;52.442;13.284;2023-06-04T03:27:02;15.40;28.70
67050;DHT22;53955;52.442;13.284;2023-06-04T03:29:30;15.50;26.20
67050;DHT22;53955;52.442;13.284;2023-06-04T03:31:57;15.70;26.50
67050;DHT22;53955;52.442;13.284;2023-06-04T03:34:23;15.60;26.30
67050;DHT22;53955;52.442;13.284;2023-06-04T03:36:51;15.70;26.40
67050;DHT22;53955;52.442;13.284;2023-06-04T03:39:17;15.70;25.40
67050;DHT22;53955;52.442;13.284;2023-06-04T03:41:44;15.70;26.10
67050;DHT22;53955;52.442;13.284;2023-06-04T03:44:12;15.80;26.40
67050;DHT22;53955;52.442;13.284;2023-06-04T03:46:40;15.80;26.80
67050;DHT22;53955;52.442;13.284;2023-06-04T03:49:09;15.70;26.80
67050;DHT22;53955;52.442;13.284;2023-06-04T03:51:36;15.70;27.50
67050;DHT22;53955;52.442;13.284;2023-06-04T03:54:02;15.80;27.80
67050;DHT22;53955;52.442;13.284;2023-06-04T03:56:29;15.80;27.90
67050;DHT22;53955;52.442;13.284;2023-06-04T03:58:56;15.90;27.20
67050;DHT22;53955;52.442;13.284;2023-06-04T04:01:23;16.00;27.20
67050;DHT22;53955;52.442;13.284;2023-06-04T04:03:51;16.10;26.50
67050;DHT22;53955;52.442;13.284;2023-06-04T04:06:19;16.00;27.50
67050;DHT22;53955;52.442;13.284;2023-06-04T04:08:46;16.10;26.20
67050;DHT22;53955;52.442;13.284;2023-06-04T04:11:14;16.00;26.40
67050;DHT22;53955;52.442;13.284;2023-06-04T04:13:42;16.20;25.00
67050;DHT22;53955;52.442;13.284;2023-06-04T04:16:08;16.20;25.60
67050;DHT22;53955;52.442;13.284;2023-06-04T04:18:36;16.30;25.90
67050;DHT22;53955;52.442;13.284;2023-06-04T04:21:05;16.30;25.60
67050;DHT22;53955;52.442;13.284;2023-06-04T04:23:32;16.30;24.90
67050;DHT22;53955;52.442;13.284;2023-06-04T04:25:59;16.30;24.90
67050;DHT22;53955;52.442;13.284;2023-06-04T04:28:27;16.40;24.80
67050;DHT22;53955;52.442;13.284;2023-06-04T04:30:54;16.40;25.30
67050;DHT22;53955;52.442;13.284;2023-06-04T04:33:21;16.60;25.00
67050;DHT22;53955;52.442;13.284;2023-06-04T04:35:50;16.90;24.50
67050;DHT22;53955;52.442;13.284;2023-06-04T04:38:19;16.90;23.50
67050;DHT22;53955;52.442;13.284;2023-06-04T04:40:49;17.20;23.70
67050;DHT22;53955;52.442;13.284;2023-06-04T04:43:27;17.70;22.20
67050;DHT22;53955;52.442;13.284;2023-06-04T04:45:54;18.00;21.30
67050;DHT22;53955;52.442;13.284;2023-06-04T04:48:21;18.40;20.60
67050;DHT22;53955;52.442;13.284;2023-06-04T04:50:47;19.50;17.50
67050;DHT22;53955;52.442;13.284;2023-06-04T04:53:14;21.10;13.40
67050;DHT22;53955;52.442;13.284;2023-06-04T04:55:42;22.70;11.80
67050;DHT22;53955;52.442;13.284;2023-06-04T04:58:08;24.10;9.50
67050;DHT22;53955;52.442;13.284;2023-06-04T05:00:35;25.60;8.10
67050;DHT22;53955;52.442;13.284;2023-06-04T05:03:01;26.50;8.40
67050;DHT22;53955;52.442;13.284;2023-06-04T05:05:28;27.20;6.80
67050;DHT22;53955;52.442;13.284;2023-06-04T05:07:55;27.80;6.70
67050;DHT22;53955;52.442;13.284;2023-06-04T05:10:21;28.30;6.00
67050;DHT22;53955;52.442;13.284;2023-06-04T05:12:52;28.80;5.30
67050;DHT22;53955;52.442;13.284;2023-06-04T05:15:19;29.00;4.80
67050;DHT22;53955;52.442;13.284;2023-06-04T05:17:46;29.90;4.90
67050;DHT22;53955;52.442;13.284;2023-06-04T05:20:12;30.50;4.30
67050;DHT22;53955;52.442;13.284;2023-06-04T05:22:40;30.90;3.30
67050;DHT22;53955;52.442;13.284;2023-06-04T05:25:08;30.90;2.70
67050;DHT22;53955;52.442;13.284;2023-06-04T05:27:35;30.80;3.20
67050;DHT22;53955;52.442;13.284;2023-06-04T05:30:03;30.60;3.40
67050;DHT22;53955;52.442;13.284;2023-06-04T05:32:30;31.10;2.70
67050;DHT22;53955;52.442;13.284;2023-06-04T05:34:58;31.20;2.40
67050;DHT22;53955;52.442;13.284;2023-06-04T05:37:25;31.80;2.60
67050;DHT22;53955;52.442;13.284;2023-06-04T05:39:55;31.80;2.00
67050;DHT22;53955;52.442;13.284;2023-06-04T05:42:22;32.50;2.30
67050;DHT22;53955;52.442;13.284;2023-06-04T05:44:49;31.80;2.20
67050;DHT22;53955;52.442;13.284;2023-06-04T05:47:17;31.70;3.70
67050;DHT22;53955;52.442;13.284;2023-06-04T05:49:44;32.50;4.70
67050;DHT22;53955;52.442;13.284;2023-06-04T05:52:10;32.90;2.80
67050;DHT22;53955;52.442;13.284;2023-06-04T05:54:37;32.30;2.20
67050;DHT22;53955;52.442;13.284;2023-06-04T05:57:04;32.90;2.60
67050;DHT22;53955;52.442;13.284;2023-06-04T05:59:30;33.40;2.10
67050;DHT22;53955;52.442;13.284;2023-06-04T06:01:57;33.80;0.90
67050;DHT22;53955;52.442;13.284;2023-06-04T06:04:25;34.70;0.20
67050;DHT22;53955;52.442;13.284;2023-06-04T06:06:51;34.50;1.00
67050;DHT22;53955;52.442;13.284;2023-06-04T06:09:19;34.90;0.90
67050;DHT22;53955;52.442;13.284;2023-06-04T06:11:46;34.70;1.20
67050;DHT22;53955;52.442;13.284;2023-06-04T06:14:12;34.80;1.20
67050;DHT22;53955;52.442;13.284;2023-06-04T06:16:39;34.40;0.40
67050;DHT22;53955;52.442;13.284;2023-06-04T06:19:06;34.10;0.20
67050;DHT22;53955;52.442;13.284;2023-06-04T06:21:34;33.30;1.70
67050;DHT22;53955;52.442;13.284;2023-06-04T06:24:01;32.40;1.60
67050;DHT22;53955;52.442;13.284;2023-06-04T06:26:28;31.60;1.30
67050;DHT22;53955;52.442;13.284;2023-06-04T06:28:55;30.60;2.30
67050;DHT22;53955;52.442;13.284;2023-06-04T06:31:22;29.80;2.60
67050;DHT22;53955;52.442;13.284;2023-06-04T06:33:49;29.00;1.00
67050;DHT22;53955;52.442;13.284;2023-06-04T06:36:15;27.40;2.10
67050;DHT22;53955;52.442;13.284;2023-06-04T06:38:45;26.90;2.90
67050;DHT22;53955;52.442;13.284;2023-06-04T06:41:12;26.60;3.70
67050;DHT22;53955;52.442;13.284;2023-06-04T06:43:39;26.70;5.90
67050;DHT22;53955;52.442;13.284;2023-06-04T06:46:05;26.90;4.50
67050;DHT22;53955;52.442;13.284;2023-06-04T06:48:32;26.90;4.20
67050;DHT22;53955;52.442;13.284;2023-06-04T06:50:59;26.70;4.10
67050;DHT22;53955;52.442;13.284;2023-06-04T06:53:25;26.20;3.80
67050;DHT22;53955;52.442;13.284;2023-06-04T06:55:53;25.60;3.40
67050;DHT22;53955;52.442;13.284;2023-06-04T06:58:21;25.60;2.90
67050;DHT22;53955;52.442;13.284;2023-06-04T07:00:48;26.00;3.10
67050;DHT22;53955;52.442;13.284;2023-06-04T07:03:16;26.30;3.70
67050;DHT22;53955;52.442;13.284;2023-06-04T07:05:43;26.60;2.30
67050;DHT22;53955;52.442;13.284;2023-06-04T07:08:09;26.70;1.60
67050;DHT22;53955;52.442;13.284;2023-06-04T07:10:36;25.80;1.90
67050;DHT22;53955;52.442;13.284;2023-06-04T07:13:04;26.00;0.50
67050;DHT22;53955;52.442;13.284;2023-06-04T07:15:30;26.20;2.60
67050;DHT22;53955;52.442;13.284;2023-06-04T07:17:57;26.50;2.40
67050;DHT22;53955;52.442;13.284;2023-06-04T07:20:24;26.70;2.70
67050;DHT22;53955;52.442;13.284;2023-06-04T07:22:50;27.00;3.00
67050;DHT22;53955;52.442;13.284;2023-06-04T07:25:17;27.10;2.00
67050;DHT22;53955;52.442;13.284;2023-06-04T07:27:44;27.20;0.20
67050;DHT22;53955;52.442;13.284;2023-06-04T07:30:12;27.10;1.50
67050;DHT22;53955;52.442;13.284;2023-06-04T07:32:39;27.20;2.10
67050;DHT22;53955;52.442;13.284;2023-06-04T07:35:06;27.20;1.20
67050;DHT22;53955;52.442;13.284;2023-06-04T07:37:33;27.30;1.90
67050;DHT22;53955;52.442;13.284;2023-06-04T07:40:00;27.30;1.60
67050;DHT22;53955;52.442;13.284;2023-06-04T07:42:26;27.40;2.40
67050;DHT22;53955;52.442;13.284;2023-06-04T07:44:53;27.50;0.00
67050;DHT22;53955;52.442;13.284;2023-06-04T07:47:22;26.70;0.00
67050;DHT22;53955;52.442;13.284;2023-06-04T07:49:48;26.60;2.10
67050;DHT22;53955;52.442;13.284;2023-06-04T07:52:15;26.80;2.10
67050;DHT22;53955;52.442;13.284;2023-06-04T07:54:42;27.00;0.90
67050;DHT22;53955;52.442;13.284;2023-06-04T07:57:09;26.80;0.70
67050;DHT22;53955;52.442;13.284;2023-06-04T07:59:35;26.90;1.40
67050;DHT22;53955;52.442;13.284;2023-06-04T08:02:01;26.20;0.00
67050;DHT22;53955;52.442;13.284;2023-06-04T08:04:29;26.10;1.00
67050;DHT22;53955;52.442;13.284;2023-06-04T08:06:56;26.30;0.70
67050;DHT22;53955;52.442;13.284;2023-06-04T08:09:22;26.50;2.40
67050;DHT22;53955;52.442;13.284;2023-06-04T08:11:49;26.60;2.20
67050;DHT22;53955;52.442;13.284;2023-06-04T08:14:16;26.70;3.80
67050;DHT22;53955;52.442;13.284;2023-06-04T08:16:45;26.70;0.40
67050;DHT22;53955;52.442;13.284;2023-06-04T08:19:11;26.60;2.90
67050;DHT22;53955;52.442;13.284;2023-06-04T08:21:40;26.90;1.20
67050;DHT22;53955;52.442;13.284;2023-06-04T08:24:08;27.30;1.60
67050;DHT22;53955;52.442;13.284;2023-06-04T08:26:34;26.70;1.20
67050;DHT22;53955;52.442;13.284;2023-06-04T08:29:02;26.70;3.20
67050;DHT22;53955;52.442;13.284;2023-06-04T08:31:29;27.20;3.20
67050;DHT22;53955;52.442;13.284;2023-06-04T08:33:56;27.00;3.30
67050;DHT22;53955;52.442;13.284;2023-06-04T08:36:22;26.60;0.00
67050;DHT22;53955;52.442;13.284;2023-06-04T08:38:50;26.40;0.90
67050;DHT22;53955;52.442;13.284;2023-06-04T08:41:24;26.10;0.00
67050;DHT22;53955;52.442;13.284;2023-06-04T08:43:51;25.90;0.00
67050;DHT22;53955;52.442;13.284;2023-06-04T08:46:20;25.80;0.00
67050;DHT22;53955;52.442;13.284;2023-06-04T08:48:47;25.80;1.50
67050;DHT22;53955;52.442;13.284;2023-06-04T08:51:15;26.10;0.40
67050;DHT22;53955;52.442;13.284;2023-06-04T08:53:42;26.50;1.30
67050;DHT22;53955;52.442;13.284;2023-06-04T08:56:14;26.80;1.20
67050;DHT22;53955;52.442;13.284;2023-06-04T08:58:42;27.00;0.90
67050;DHT22;53955;52.442;13.284;2023-06-04T09:01:09;27.10;0.70
67050;DHT22;53955;52.442;13.284;2023-06-04T09:03:36;27.00;0.00
67050;DHT22;53955;52.442;13.284;2023-06-04T09:06:03;26.70;0.00
67050;DHT22;53955;52.442;13.284;2023-06-04T09:08:31;26.50;0.40
67050;DHT22;53955;52.442;13.284;2023-06-04T09:10:57;26.60;0.00
67050;DHT22;53955;52.442;13.284;2023-06-04T09:13:27;26.60;1.20
67050;DHT22;53955;52.442;13.284;2023-06-04T09:16:00;26.90;1.30
67050;DHT22;53955;52.442;13.284;2023-06-04T09:18:27;26.90;0.00
67050;DHT22;53955;52.442;13.284;2023-06-04T09:21:00;26.70;0.00
67050;DHT22;53955;52.442;13.284;2023-06-04T09:23:27;26.70;0.30
67050;DHT22;53955;52.442;13.284;2023-06-04T09:25:54;26.70;0.50
67050;DHT22;53955;52.442;13.284;2023-06-04T09:28:20;26.90;1.00
67050;DHT22;53955;52.442;13.284;2023-06-04T09:30:51;27.10;0.80
67050;DHT22;53955;52.442;13.284;2023-06-04T09:33:18;27.00;0.00
67050;DHT22;53955;52.442;13.284;2023-06-04T09:35:52;26.80;0.00
67050;DHT22;53955;52.442;13.284;2023-06-04T09:38:19;26.90;0.80
67050;DHT22;53955;52.442;13.284;2023-06-04T09:40:45;26.80;1.00
67050;DHT22;53955;52.442;13.284;2023-06-04T09:43:20;27.10;0.00
67050;DHT22;53955;52.442;13.284;2023-06-04T09:45:47;26.80;0.00
67050;DHT22;53955;52.442;13.284;2023-06-04T09:48:19;26.60;0.00
67050;DHT22;53955;52.442;13.284;2023-06-04T09:50:46;26.80;1.00
67050;DHT22;53955;52.442;13.284;2023-06-04T09:53:13;27.20;1.50
67050;DHT22;53955;52.442;13.284;2023-06-04T09:55:40;27.20;0.00
67050;DHT22;53955;52.442;13.284;2023-06-04T09:58:07;26.80;0.00
67050;DHT22;53955;52.442;13.284;2023-06-04T10:00:34;26.70;0.00
67050;DHT22;53955;52.442;13.284;2023-06-04T10:03:02;26.90;0.50
67050;DHT22;53955;52.442;13.284;2023-06-04T10:05:32;27.20;0.00
67050;DHT22;53955;52.442;13.284;2023-06-04T10:07:59;27.20;0.30
67050;DHT22;53955;52.442;13.284;2023-06-04T10:10:27;27.20;0.00
67050;DHT22;53955;52.442;13.284;2023-06-04T10:12:54;27.00;0.00
67050;DHT22;53955;52.442;13.284;2023-06-04T10:15:25;26.80;0.00
67050;DHT22;53955;52.442;13.284;2023-06-04T10:17:52;26.80;0.00
67050;DHT22;53955;52.442;13.284;2023-06-04T10:20:20;26.50;0.00
67050;DHT22;53955;52.442;13.284;2023-06-04T10:22:48;26.50;0.00
67050;DHT22;53955;52.442;13.284;2023-06-04T10:25:16;26.10;0.00
67050;DHT22;53955;52.442;13.284;2023-06-04T10:27:46;25.90;0.00
67050;DHT22;53955;52.442;13.284;2023-06-04T10:30:13;26.00;0.00
67050;DHT22;53955;52.442;13.284;2023-06-04T10:32:40;25.80;0.00
67050;DHT22;53955;52.442;13.284;2023-06-04T10:35:07;26.00;0.00
67050;DHT22;53955;52.442;13.284;2023-06-04T10:37:34;26.10;0.00
67050;DHT22;53955;52.442;13.284;2023-06-04T10:40:02;25.90;0.00
67050;DHT22;53955;52.442;13.284;2023-06-04T10:42:38;26.10;0.00
67050;DHT22;53955;52.442;13.284;2023-06-04T10:45:06;26.10;0.00
67050;DHT22;53955;52.442;13.284;2023-06-04T10:47:33;26.10;0.00
67050;DHT22;53955;52.442;13.284;2023-06-04T10:50:10;26.10;0.00
67050;DHT22;53955;52.442;13.284;2023-06-04T10:52:36;26.20;0.00
67050;DHT22;53955;52.442;13.284;2023-06-04T10:55:06;26.10;0.00
67050;DHT22;53955;52.442;13.284;2023-06-04T10:57:33;25.80;0.00
67050;DHT22;53955;52.442;13.284;2023-06-04T11:00:01;25.60;0.00
67050;DHT22;53955;52.442;13.284;2023-06-04T11:02:29;25.80;0.00
67050;DHT22;53955;52.442;13.284;2023-06-04T11:04:59;26.00;0.00
67050;DHT22;53955;52.442;13.284;2023-06-04T11:07:29;26.10;0.00
67050;DHT22;53955;52.442;13.284;2023-06-04T11:09:55;25.90;0.00
67050;DHT22;53955;52.442;13.284;2023-06-04T11:12:23;26.00;0.00
67050;DHT22;53955;52.442;13.284;2023-06-04T11:14:54;26.10;0.00
67050;DHT22;53955;52.442;13.284;2023-06-04T11:17:20;26.20;0.00
67050;DHT22;53955;52.442;13.284;2023-06-04T11:19:47;26.20;0.00
67050;DHT22;53955;52.442;13.284;2023-06-04T11:22:14;25.80;0.00
67050;DHT22;53955;52.442;13.284;2023-06-04T11:24:41;25.80;0.00
67050;DHT22;53955;52.442;13.284;2023-06-04T11:27:08;25.90;0.00
67050;DHT22;53955;52.442;13.284;2023-06-04T11:29:36;26.00;0.00
67050;DHT22;53955;52.442;13.284;2023-06-04T11:32:03;26.00;0.00
67050;DHT22;53955;52.442;13.284;2023-06-04T11:34:30;26.20;0.00
67050;DHT22;53955;52.442;13.284;2023-06-04T11:37:07;26.20;0.00
67050;DHT22;53955;52.442;13.284;2023-06-04T11:39:35;26.20;0.00
67050;DHT22;53955;52.442;13.284;2023-06-04T11:42:05;26.20;0.00
67050;DHT22;53955;52.442;13.284;2023-06-04T11:44:33;26.00;0.00
67050;DHT22;53955;52.442;13.284;2023-06-04T11:47:05;26.00;0.00
67050;DHT22;53955;52.442;13.284;2023-06-04T11:49:33;25.90;0.00
67050;DHT22;53955;52.442;13.284;2023-06-04T11:52:01;26.30;0.00
67050;DHT22;53955;52.442;13.284;2023-06-04T11:54:28;26.20;0.00
67050;DHT22;53955;52.442;13.284;2023-06-04T11:56:55;26.00;0.00
67050;DHT22;53955;52.442;13.284;2023-06-04T11:59:21;26.10;0.00
67050;DHT22;53955;52.442;13.284;2023-06-04T12:01:48;26.10;0.00
67050;DHT22;53955;52.442;13.284;2023-06-04T12:04:18;26.00;0.00
67050;DHT22;53955;52.442;13.284;2023-06-04T12:06:51;26.10;0.00
67050;DHT22;53955;52.442;13.284;2023-06-04T12:09:22;26.20;0.00
67050;DHT22;53955;52.442;13.284;2023-06-04T12:11:49;26.30;0.00
67050;DHT22;53955;52.442;13.284;2023-06-04T12:14:17;26.10;0.00
67050;DHT22;53955;52.442;13.284;2023-06-04T12:16:54;26.10;0.00
67050;DHT22;53955;52.442;13.284;2023-06-04T12:19:22;25.90;0.00
67050;DHT22;53955;52.442;13.284;2023-06-04T12:21:59;26.20;0.00
67050;DHT22;53955;52.442;13.284;2023-06-04T12:24:26;26.30;0.00
67050;DHT22;53955;52.442;13.284;2023-06-04T12:27:02;26.60;0.20
67050;DHT22;53955;52.442;13.284;2023-06-04T12:29:28;26.70;0.60
67050;DHT22;53955;52.442;13.284;2023-06-04T12:32:02;26.80;0.40
67050;DHT22;53955;52.442;13.284;2023-06-04T12:34:31;26.90;0.60
67050;DHT22;53955;52.442;13.284;2023-06-04T12:36:58;26.90;0.10
67050;DHT22;53955;52.442;13.284;2023-06-04T12:39:24;27.00;0.30
67050;DHT22;53955;52.442;13.284;2023-06-04T12:41:51;26.90;0.00
67050;DHT22;53955;52.442;13.284;2023-06-04T12:44:17;26.80;0.00
67050;DHT22;53955;52.442;13.284;2023-06-04T12:46:44;26.70;0.00
67050;DHT22;53955;52.442;13.284;2023-06-04T12:49:10;26.50;0.00
67050;DHT22;53955;52.442;13.284;2023-06-04T12:51:38;26.40;0.00
67050;DHT22;53955;52.442;13.284;2023-06-04T12:54:05;26.30;0.00
67050;DHT22;53955;52.442;13.284;2023-06-04T12:56:31;26.60;0.00
67050;DHT22;53955;52.442;13.284;2023-06-04T12:58:58;26.30;0.00
67050;DHT22;53955;52.442;13.284;2023-06-04T13:01:24;26.30;0.00
67050;DHT22;53955;52.442;13.284;2023-06-04T13:03:51;26.10;0.00
67050;DHT22;53955;52.442;13.284;2023-06-04T13:06:18;26.00;0.00
67050;DHT22;53955;52.442;13.284;2023-06-04T13:08:46;26.00;0.00
67050;DHT22;53955;52.442;13.284;2023-06-04T13:11:12;26.20;0.00
67050;DHT22;53955;52.442;13.284;2023-06-04T13:13:39;26.30;0.00
67050;DHT22;53955;52.442;13.284;2023-06-04T13:16:05;26.40;0.00
67050;DHT22;53955;52.442;13.284;2023-06-04T13:18:32;26.50;0.00
67050;DHT22;53955;52.442;13.284;2023-06-04T13:20:58;26.40;0.00
67050;DHT22;53955;52.442;13.284;2023-06-04T13:23:25;26.30;0.00
67050;DHT22;53955;52.442;13.284;2023-06-04T13:25:52;26.40;0.00
67050;DHT22;53955;52.442;13.284;2023-06-04T13:28:19;26.50;0.00
67050;DHT22;53955;52.442;13.284;2023-06-04T13:30:46;26.30;0.00
67050;DHT22;53955;52.442;13.284;2023-06-04T13:33:13;26.30;0.00
67050;DHT22;53955;52.442;13.284;2023-06-04T13:35:39;26.30;0.00
67050;DHT22;53955;52.442;13.284;2023-06-04T13:38:07;26.20;0.00
67050;DHT22;53955;52.442;13.284;2023-06-04T13:40:34;26.30;0.00
67050;DHT22;53955;52.442;13.284;2023-06-04T13:43:04;26.40;0.00
67050;DHT22;53955;52.442;13.284;2023-06-04T13:45:30;26.40;0.00
67050;DHT22;53955;52.442;13.284;2023-06-04T13:47:57;26.00;0.00
67050;DHT22;53955;52.442;13.284;2023-06-04T13:50:27;25.90;0.00
67050;DHT22;53955;52.442;13.284;2023-06-04T13:52:54;25.70;0.00
67050;DHT22;53955;52.442;13.284;2023-06-04T13:55:20;25.80;0.00
67050;DHT22;53955;52.442;13.284;2023-06-04T13:57:47;25.60;0.00
67050;DHT22;53955;52.442;13.284;2023-06-04T14:00:15;25.60;0.00
67050;DHT22;53955;52.442;13.284;2023-06-04T14:02:42;25.10;0.00
67050;DHT22;53955;52.442;13.284;2023-06-04T14:05:09;25.00;0.00
67050;DHT22;53955;52.442;13.284;2023-06-04T14:07:35;25.10;0.00
67050;DHT22;53955;52.442;13.284;2023-06-04T14:10:02;25.20;0.00
67050;DHT22;53955;52.442;13.284;2023-06-04T14:12:29;25.30;0.00
67050;DHT22;53955;52.442;13.284;2023-06-04T14:14:56;25.50;0.00
67050;DHT22;53955;52.442;13.284;2023-06-04T14:17:24;25.60;0.00
67050;DHT22;53955;52.442;13.284;2023-06-04T14:19:50;25.60;0.00
67050;DHT22;53955;52.442;13.284;2023-06-04T14:22:16;25.80;0.00
67050;DHT22;53955;52.442;13.284;2023-06-04T14:24:43;25.90;0.00
67050;DHT22;53955;52.442;13.284;2023-06-04T14:27:09;26.00;0.00
67050;DHT22;53955;52.442;13.284;2023-06-04T14:29:36;25.90;0.00
67050;DHT22;53955;52.442;13.284;2023-06-04T14:32:03;26.00;0.00
67050;DHT22;53955;52.442;13.284;2023-06-04T14:34:31;25.90;0.00
67050;DHT22;53955;52.442;13.284;2023-06-04T14:36:58;26.00;0.00
67050;DHT22;53955;52.442;13.284;2023-06-04T14:39:25;26.20;0.00
67050;DHT22;53955;52.442;13.284;2023-06-04T14:41:51;26.20;0.00
67050;DHT22;53955;52.442;13.284;2023-06-04T14:44:18;26.10;0.00
67050;DHT22;53955;52.442;13.284;2023-06-04T14:46:45;26.10;0.00
67050;DHT22;53955;52.442;13.284;2023-06-04T14:49:12;26.20;0.00
67050;DHT22;53955;52.442;13.284;2023-06-04T14:51:40;26.40;0.00
67050;DHT22;53955;52.442;13.284;2023-06-04T14:54:06;26.40;0.00
67050;DHT22;53955;52.442;13.284;2023-06-04T14:56:33;26.50;0.00
67050;DHT22;53955;52.442;13.284;2023-06-04T14:58:59;26.70;0.00
67050;DHT22;53955;52.442;13.284;2023-06-04T15:01:27;27.00;0.00
67050;DHT22;53955;52.442;13.284;2023-06-04T15:03:53;27.00;0.00
67050;DHT22;53955;52.442;13.284;2023-06-04T15:06:20;27.10;0.00
67050;DHT22;53955;52.442;13.284;2023-06-04T15:08:47;27.00;0.00
67050;DHT22;53955;52.442;13.284;2023-06-04T15:11:14;26.60;0.00
67050;DHT22;53955;52.442;13.284;2023-06-04T15:13:41;26.70;0.00
67050;DHT22;53955;52.442;13.284;2023-06-04T15:16:07;27.00;0.00
67050;DHT22;53955;52.442;13.284;2023-06-04T15:18:34;27.00;0.00
67050;DHT22;53955;52.442;13.284;2023-06-04T15:21:00;26.80;0.00
67050;DHT22;53955;52.442;13.284;2023-06-04T15:23:26;26.70;0.00
67050;DHT22;53955;52.442;13.284;2023-06-04T15:25:54;26.80;0.00
67050;DHT22;53955;52.442;13.284;2023-06-04T15:28:21;26.80;0.00